createdAt,value
2022-08-26T00:01:56.862Z,24.22
2022-08-26T00:04:25.636Z,24.93
2022-08-26T00:06:55.601Z,23.92
2022-08-26T00:09:24.625Z,24.27
2022-08-26T00:11:52.521Z,24.07
2022-08-26T00:14:19.514Z,23.86
2022-08-26T00:16:47.262Z,23.21
2022-08-26T00:19:18.383Z,22.66
2022-08-26T00:21:46.239Z,22.94
2022-08-26T00:24:15.903Z,23.35
2022-08-26T00:26:42.693Z,23.70
2022-08-26T00:29:10.086Z,23.02
2022-08-26T00:31:37.918Z,23.83
2022-08-26T00:34:06.122Z,25.02
2022-08-26T00:36:32.941Z,25.46
2022-08-26T00:38:59.767Z,23.82
2022-08-26T00:41:28.994Z,22.07
2022-08-26T00:43:56.122Z,26.62
2022-08-26T00:46:31.777Z,24.56
2022-08-26T00:49:22.106Z,23.98
2022-08-26T00:51:54.671Z,23.57
2022-08-26T00:54:26.949Z,25.15
2022-08-26T00:57:08.754Z,24.85
2022-08-26T00:59:46.515Z,23.73
2022-08-26T01:02:20.817Z,23.75
2022-08-26T01:04:55.911Z,23.13
2022-08-26T01:07:26.203Z,24.51
2022-08-26T01:09:55.753Z,25.53
2022-08-26T01:12:25.075Z,24.21
2022-08-26T01:14:52.006Z,25.40
2022-08-26T01:17:19.090Z,24.66
2022-08-26T01:19:50.165Z,24.98
2022-08-26T01:22:26.642Z,24.20
2022-08-26T01:24:59.085Z,22.92
2022-08-26T01:27:32.539Z,23.40
2022-08-26T01:30:01.681Z,23.59
2022-08-26T01:32:31.826Z,24.16
2022-08-26T01:34:59.355Z,23.88
2022-08-26T01:37:35.366Z,23.52
2022-08-26T01:40:07.792Z,24.04
2022-08-26T01:42:34.844Z,23.76
2022-08-26T01:45:15.253Z,24.65
2022-08-26T01:47:43.301Z,23.70
2022-08-26T01:50:15.744Z,23.99
2022-08-26T01:52:56.113Z,25.69
2022-08-26T01:55:32.068Z,24.35
2022-08-26T01:58:05.242Z,24.69
2022-08-26T02:00:34.381Z,25.06
2022-08-26T02:03:18.148Z,23.97
2022-08-26T02:05:59.157Z,23.87
2022-08-26T02:08:40.901Z,24.33
2022-08-26T02:11:08.618Z,25.69
2022-08-26T02:13:41.089Z,26.09
2022-08-26T02:16:09.140Z,25.37
2022-08-26T02:18:38.717Z,24.40
2022-08-26T02:21:06.938Z,23.90
2022-08-26T02:23:34.089Z,23.44
2022-08-26T02:26:01.090Z,24.06
2022-08-26T02:28:34.612Z,23.42
2022-08-26T02:31:02.659Z,24.45
2022-08-26T02:33:30.435Z,24.13
2022-08-26T02:35:57.559Z,25.30
2022-08-26T02:38:24.448Z,24.17
2022-08-26T02:40:51.255Z,24.40
2022-08-26T02:43:18.175Z,23.34
2022-08-26T02:45:50.817Z,23.53
2022-08-26T02:48:21.276Z,23.46
2022-08-26T02:50:49.157Z,22.68
2022-08-26T02:53:16.861Z,24.25
2022-08-26T02:55:51.379Z,23.73
2022-08-26T02:58:18.335Z,23.02
2022-08-26T03:00:53.435Z,23.85
2022-08-26T03:03:23.564Z,24.65
2022-08-26T03:05:54.073Z,24.59
2022-08-26T03:08:21.110Z,24.32
2022-08-26T03:10:48.366Z,24.18
2022-08-26T03:13:16.784Z,24.73
2022-08-26T03:15:44.277Z,24.29
2022-08-26T03:18:13.515Z,24.91
2022-08-26T03:20:40.611Z,24.38
2022-08-26T03:23:07.853Z,24.11
2022-08-26T03:25:36.047Z,24.63
2022-08-26T03:28:03.746Z,25.05
2022-08-26T03:30:45.142Z,24.11
2022-08-26T03:33:14.250Z,25.36
2022-08-26T03:35:43.600Z,25.14
2022-08-26T03:38:11.114Z,24.11
2022-08-26T03:40:38.762Z,23.96
2022-08-26T03:43:09.701Z,24.71
2022-08-26T03:45:37.844Z,25.11
2022-08-26T03:48:05.593Z,24.51
2022-08-26T03:50:34.317Z,24.47
2022-08-26T03:53:03.891Z,25.66
2022-08-26T03:55:32.810Z,25.16
2022-08-26T03:58:01.143Z,24.17
2022-08-26T04:00:28.959Z,25.50
2022-08-26T04:02:56.301Z,25.21
2022-08-26T04:05:23.368Z,24.30
2022-08-26T04:07:51.436Z,25.21
2022-08-26T04:10:28.962Z,24.62
2022-08-26T04:12:58.988Z,23.76
2022-08-26T04:15:26.995Z,23.96
2022-08-26T04:17:54.020Z,24.09
2022-08-26T04:20:22.790Z,25.09
2022-08-26T04:22:50.646Z,25.17
2022-08-26T04:25:18.608Z,24.23
2022-08-26T04:27:47.386Z,25.49
2022-08-26T04:30:16.641Z,24.29
2022-08-26T04:32:43.945Z,23.89
2022-08-26T04:35:10.961Z,24.34
2022-08-26T04:37:38.191Z,23.79
2022-08-26T04:40:05.954Z,24.65
2022-08-26T04:42:33.403Z,24.99
2022-08-26T04:45:01.382Z,24.75
2022-08-26T04:47:32.631Z,25.15
2022-08-26T04:50:01.948Z,24.31
2022-08-26T04:52:29.111Z,25.34
2022-08-26T04:54:57.887Z,24.81
2022-08-26T04:57:24.661Z,24.98
2022-08-26T04:59:51.454Z,24.83
2022-08-26T05:02:18.310Z,23.99
2022-08-26T05:04:45.959Z,25.59
2022-08-26T05:07:12.950Z,25.06
2022-08-26T05:09:40.802Z,24.14
2022-08-26T05:12:08.289Z,25.07
2022-08-26T05:14:36.042Z,25.24
2022-08-26T05:17:03.224Z,25.63
2022-08-26T05:19:31.671Z,25.14
2022-08-26T05:21:59.487Z,24.45
2022-08-26T05:24:26.611Z,24.71
2022-08-26T05:26:54.147Z,26.03
2022-08-26T05:29:24.137Z,25.08
2022-08-26T05:31:52.506Z,23.54
2022-08-26T05:34:20.878Z,25.24
2022-08-26T05:36:48.164Z,26.16
2022-08-26T05:39:15.227Z,27.26
2022-08-26T05:41:43.225Z,25.64
2022-08-26T05:44:14.462Z,25.77
2022-08-26T05:46:42.090Z,25.17
2022-08-26T05:49:13.123Z,26.00
2022-08-26T05:51:41.923Z,24.01
2022-08-26T05:54:10.422Z,25.42
2022-08-26T05:56:39.137Z,24.60
2022-08-26T05:59:06.549Z,24.93
2022-08-26T06:01:43.653Z,22.97
2022-08-26T06:04:11.383Z,23.24
2022-08-26T06:06:41.590Z,22.75
2022-08-26T06:09:11.451Z,25.08
2022-08-26T06:11:39.044Z,25.62
2022-08-26T06:14:07.962Z,23.51
2022-08-26T06:16:38.670Z,22.92
2022-08-26T06:19:11.462Z,23.58
2022-08-26T06:21:40.550Z,23.22
2022-08-26T06:24:29.161Z,23.96
2022-08-26T06:26:59.078Z,25.07
2022-08-26T06:29:27.830Z,24.85
2022-08-26T06:31:56.439Z,22.97
2022-08-26T06:34:29.679Z,22.96
2022-08-26T06:36:58.666Z,23.23
2022-08-26T06:39:25.631Z,23.26
2022-08-26T06:41:52.545Z,23.04
2022-08-26T06:44:20.262Z,24.71
2022-08-26T06:46:50.546Z,24.54
2022-08-26T06:49:18.322Z,23.78
2022-08-26T06:51:53.445Z,22.83
2022-08-26T06:54:20.469Z,23.39
2022-08-26T06:56:47.944Z,24.85
2022-08-26T06:59:16.097Z,24.32
2022-08-26T07:01:46.701Z,23.61
2022-08-26T07:04:20.317Z,25.32
2022-08-26T07:06:52.684Z,23.82
2022-08-26T07:09:22.433Z,24.76
2022-08-26T07:11:49.713Z,24.39
2022-08-26T07:14:19.290Z,21.98
2022-08-26T07:16:48.490Z,23.32
2022-08-26T07:19:16.650Z,22.55
2022-08-26T07:21:44.201Z,21.94
2022-08-26T07:24:11.364Z,21.16
2022-08-26T07:26:43.095Z,21.00
2022-08-26T07:29:12.572Z,20.18
2022-08-26T07:31:42.375Z,19.81
2022-08-26T07:34:13.605Z,21.61
2022-08-26T07:36:41.502Z,22.77
2022-08-26T07:39:08.942Z,22.09
2022-08-26T07:41:36.661Z,21.20
2022-08-26T07:44:04.373Z,20.42
2022-08-26T07:46:31.653Z,20.21
2022-08-26T07:48:59.142Z,21.85
2022-08-26T07:51:27.183Z,21.42
2022-08-26T07:53:55.218Z,21.15
2022-08-26T07:56:23.396Z,21.11
2022-08-26T07:58:54.020Z,21.04
2022-08-26T08:01:23.875Z,19.67
2022-08-26T08:03:51.832Z,20.26
2022-08-26T08:06:27.422Z,19.50
2022-08-26T08:08:56.252Z,21.08
2022-08-26T08:11:23.835Z,21.86
2022-08-26T08:13:56.418Z,21.56
2022-08-26T08:16:28.540Z,21.43
2022-08-26T08:18:59.563Z,21.05
2022-08-26T08:21:28.942Z,21.48
2022-08-26T08:24:01.849Z,21.40
2022-08-26T08:26:30.594Z,20.67
2022-08-26T08:28:58.150Z,19.00
2022-08-26T08:31:55.945Z,22.01
2022-08-26T08:34:15.298Z,20.14
2022-08-26T08:36:42.299Z,18.19
2022-08-26T08:39:09.481Z,18.69
2022-08-26T08:42:04.257Z,18.70
2022-08-26T08:44:31.898Z,18.80
2022-08-26T08:47:11.845Z,19.49
2022-08-26T08:49:39.326Z,17.85
2022-08-26T08:52:25.692Z,17.27
2022-08-26T08:54:55.524Z,20.98
2022-08-26T08:57:42.182Z,20.56
2022-08-26T09:00:22.407Z,18.61
2022-08-26T09:03:10.881Z,17.65
2022-08-26T09:05:48.702Z,18.21
2022-08-26T09:08:27.472Z,17.56
2022-08-26T09:10:59.435Z,16.69
2022-08-26T09:13:27.598Z,18.68
2022-08-26T09:16:10.496Z,18.04
2022-08-26T09:19:07.773Z,17.03
2022-08-26T09:21:34.597Z,16.70
2022-08-26T09:24:01.562Z,16.70
2022-08-26T09:26:40.997Z,16.90
2022-08-26T09:32:12.970Z,17.81
2022-08-26T09:35:04.683Z,18.58
2022-08-26T09:40:27.009Z,16.84
2022-08-26T09:43:22.785Z,17.85
2022-08-26T09:46:18.094Z,16.14
2022-08-26T09:48:45.542Z,16.05
2022-08-26T09:51:24.419Z,18.56
2022-08-26T09:53:54.901Z,15.62
2022-08-26T09:56:27.717Z,16.88
2022-08-26T09:58:56.787Z,16.73
2022-08-26T10:01:23.593Z,16.26
2022-08-26T10:03:51.439Z,16.96
2022-08-26T10:06:20.990Z,19.27
2022-08-26T10:09:08.921Z,16.48
2022-08-26T10:11:45.339Z,16.80
2022-08-26T10:14:24.878Z,14.91
2022-08-26T10:16:59.639Z,14.04
2022-08-26T10:19:48.285Z,16.11
2022-08-26T10:22:37.366Z,16.35
2022-08-26T10:25:08.121Z,18.14
2022-08-26T10:27:53.703Z,15.68
2022-08-26T10:30:24.681Z,16.53
2022-08-26T10:33:10.971Z,18.26
2022-08-26T10:35:52.945Z,16.85
2022-08-26T10:38:30.485Z,17.57
2022-08-26T10:41:11.354Z,17.03
2022-08-26T10:43:46.638Z,16.49
2022-08-26T10:46:23.927Z,15.41
2022-08-26T10:49:15.502Z,17.07
2022-08-26T10:51:57.947Z,17.82
2022-08-26T10:54:39.211Z,17.46
2022-08-26T10:57:15.243Z,15.76
2022-08-26T11:00:31.291Z,15.23
2022-08-26T11:03:21.898Z,15.53
2022-08-26T11:06:18.583Z,15.84
2022-08-26T11:08:50.317Z,15.73
2022-08-26T11:11:46.753Z,14.92
2022-08-26T11:14:28.693Z,15.36
2022-08-26T11:16:58.937Z,15.94
2022-08-26T11:20:01.543Z,15.71
2022-08-26T11:22:38.106Z,15.21
2022-08-26T11:25:19.829Z,15.55
2022-08-26T11:27:52.775Z,15.22
2022-08-26T11:30:20.300Z,13.66
2022-08-26T11:32:53.407Z,14.38
2022-08-26T11:35:20.556Z,14.60
2022-08-26T11:37:51.593Z,15.98
2022-08-26T11:40:22.668Z,15.53
2022-08-26T11:42:57.309Z,15.28
2022-08-26T11:45:40.068Z,17.13
2022-08-26T11:48:22.785Z,14.94
2022-08-26T11:51:03.032Z,18.41
2022-08-26T11:53:32.715Z,16.33
2022-08-26T11:56:04.454Z,14.89
2022-08-26T11:58:32.095Z,15.51
2022-08-26T12:01:09.754Z,16.65
2022-08-26T12:03:47.226Z,16.44
2022-08-26T12:06:22.854Z,15.75
2022-08-26T12:08:50.562Z,14.94
2022-08-26T12:11:27.429Z,16.18
2022-08-26T12:14:02.176Z,16.66
2022-08-26T12:16:39.494Z,15.69
2022-08-26T12:19:27.771Z,14.90
2022-08-26T12:22:02.307Z,16.28
2022-08-26T12:24:29.657Z,17.61
2022-08-26T12:27:17.664Z,17.07
2022-08-26T12:29:48.500Z,17.04
2022-08-26T12:32:18.515Z,15.43
2022-08-26T12:34:49.081Z,15.62
2022-08-26T12:37:16.564Z,15.65
2022-08-26T12:39:45.901Z,14.92
2022-08-26T12:42:12.595Z,13.72
2022-08-26T12:44:53.862Z,16.95
2022-08-26T12:47:41.950Z,13.18
2022-08-26T12:50:22.261Z,13.65
2022-08-26T12:53:05.186Z,13.96
2022-08-26T12:55:31.933Z,13.79
2022-08-26T12:58:16.710Z,12.93
2022-08-26T13:00:46.591Z,17.09
2022-08-26T13:03:28.366Z,18.11
2022-08-26T13:06:15.588Z,19.15
2022-08-26T13:08:46.018Z,18.12
2022-08-26T13:11:20.173Z,17.68
2022-08-26T13:13:53.608Z,17.97
2022-08-26T13:16:22.061Z,16.90
2022-08-26T13:18:51.870Z,16.18
2022-08-26T13:21:25.199Z,17.90
2022-08-26T13:23:52.650Z,17.35
2022-08-26T13:26:20.442Z,17.62
2022-08-26T13:28:48.623Z,16.78
2022-08-26T13:31:31.014Z,16.92
2022-08-26T13:33:58.063Z,16.18
2022-08-26T13:36:24.885Z,16.43
2022-08-26T13:38:52.048Z,16.59
2022-08-26T13:41:29.042Z,15.62
2022-08-26T13:43:56.163Z,15.74
2022-08-26T13:46:23.099Z,15.77
2022-08-26T13:48:49.863Z,15.81
2022-08-26T13:51:18.963Z,13.35
2022-08-26T13:53:46.325Z,13.59
2022-08-26T13:56:13.414Z,13.01
2022-08-26T13:58:40.338Z,12.69
2022-08-26T14:01:08.786Z,11.55
2022-08-26T14:03:36.100Z,13.24
2022-08-26T14:06:03.165Z,12.38
2022-08-26T14:08:30.811Z,13.45
2022-08-26T14:10:58.277Z,12.71
2022-08-26T14:13:25.318Z,12.72
2022-08-26T14:15:53.231Z,13.32
2022-08-26T14:18:28.066Z,13.32
2022-08-26T14:20:55.734Z,13.36
2022-08-26T14:23:22.731Z,13.27
2022-08-26T14:25:50.116Z,13.77
2022-08-26T14:28:17.376Z,13.40
2022-08-26T14:30:49.335Z,13.15
2022-08-26T14:33:17.421Z,12.34
2022-08-26T14:35:47.940Z,14.95
2022-08-26T14:38:17.268Z,12.51
2022-08-26T14:40:45.146Z,13.29
2022-08-26T14:43:15.280Z,12.40
2022-08-26T14:45:45.643Z,13.26
2022-08-26T14:48:12.573Z,13.15
2022-08-26T14:50:39.325Z,12.21
2022-08-26T14:53:24.897Z,12.46
2022-08-26T14:55:51.682Z,12.70
2022-08-26T14:58:18.549Z,12.97
2022-08-26T15:00:45.303Z,13.14
2022-08-26T15:03:12.623Z,12.43
2022-08-26T15:05:47.970Z,12.68
2022-08-26T15:08:18.902Z,15.19
2022-08-26T15:10:46.933Z,12.97
2022-08-26T15:13:13.861Z,14.80
2022-08-26T15:15:40.698Z,15.23
2022-08-26T15:18:07.939Z,16.03
2022-08-26T15:20:34.990Z,16.44
2022-08-26T15:23:06.864Z,15.06
2022-08-26T15:25:33.967Z,15.76
2022-08-26T15:28:00.874Z,16.52
2022-08-26T15:30:27.678Z,16.19
2022-08-26T15:32:54.397Z,16.26
2022-08-26T15:35:21.250Z,15.70
2022-08-26T15:37:48.318Z,16.32
2022-08-26T15:40:15.496Z,15.83
2022-08-26T15:42:42.285Z,15.92
2022-08-26T15:45:09.566Z,15.95
2022-08-26T15:48:00.733Z,16.30
2022-08-26T15:50:25.427Z,15.93
2022-08-26T15:52:52.267Z,16.65
2022-08-26T15:55:19.093Z,16.12
2022-08-26T15:57:49.347Z,17.02
2022-08-26T16:00:17.256Z,17.53
2022-08-26T16:02:44.382Z,15.51
2022-08-26T16:05:11.179Z,15.49
2022-08-26T16:07:37.992Z,17.96
2022-08-26T16:10:05.377Z,16.75
2022-08-26T16:12:32.464Z,15.89
2022-08-26T16:14:59.506Z,18.14
2022-08-26T16:17:26.276Z,16.33
2022-08-26T16:19:53.031Z,15.72
2022-08-26T16:22:20.093Z,16.27
2022-08-26T16:24:49.248Z,17.80
2022-08-26T16:27:16.191Z,17.44
2022-08-26T16:29:43.114Z,17.22
2022-08-26T16:32:09.937Z,16.13
2022-08-26T16:34:36.670Z,16.69
2022-08-26T16:37:04.348Z,16.87
2022-08-26T16:39:31.274Z,16.71
2022-08-26T16:41:58.348Z,17.39
2022-08-26T16:44:28.038Z,16.81
2022-08-26T16:46:58.587Z,16.29
2022-08-26T16:49:25.618Z,17.44
2022-08-26T16:51:52.690Z,18.08
2022-08-26T16:54:19.509Z,17.63
2022-08-26T16:56:46.255Z,17.61
2022-08-26T16:59:13.554Z,17.59
2022-08-26T17:01:40.432Z,16.65
2022-08-26T17:04:07.535Z,17.49
2022-08-26T17:06:34.577Z,17.19
2022-08-26T17:09:01.452Z,18.03
2022-08-26T17:11:28.490Z,18.20
2022-08-26T17:13:55.320Z,17.68
2022-08-26T17:16:26.701Z,18.34
2022-08-26T17:18:56.156Z,17.47
2022-08-26T17:21:24.061Z,17.62
2022-08-26T17:23:51.847Z,17.43
2022-08-26T17:26:18.606Z,17.14
2022-08-26T17:28:45.463Z,17.51
2022-08-26T17:31:13.229Z,17.52
2022-08-26T17:33:41.197Z,17.29
2022-08-26T17:36:09.545Z,18.20
2022-08-26T17:38:38.008Z,17.21
2022-08-26T17:41:12.940Z,18.18
2022-08-26T17:43:40.210Z,18.54
2022-08-26T17:46:09.576Z,19.13
2022-08-26T17:48:38.243Z,20.48
2022-08-26T17:51:11.142Z,19.20
2022-08-26T17:53:38.697Z,19.52
2022-08-26T17:56:16.395Z,19.66
2022-08-26T17:58:51.417Z,19.12
2022-08-26T18:01:20.588Z,20.75
2022-08-26T18:03:47.941Z,19.83
2022-08-26T18:06:15.290Z,20.01
2022-08-26T18:08:42.575Z,21.01
2022-08-26T18:11:11.439Z,19.96
2022-08-26T18:13:38.982Z,20.07
2022-08-26T18:16:14.632Z,19.91
2022-08-26T18:18:42.280Z,20.58
2022-08-26T18:21:18.083Z,19.86
2022-08-26T18:23:46.611Z,20.13
2022-08-26T18:26:31.963Z,20.78
2022-08-26T18:28:59.681Z,21.43
2022-08-26T18:31:27.142Z,20.39
2022-08-26T18:33:54.282Z,20.03
2022-08-26T18:36:29.966Z,19.88
2022-08-26T18:38:57.522Z,20.61
2022-08-26T18:41:27.480Z,19.90
2022-08-26T18:43:54.866Z,19.83
2022-08-26T18:46:25.172Z,20.05
2022-08-26T18:48:55.190Z,20.01
2022-08-26T18:51:33.280Z,20.93
2022-08-26T18:54:02.548Z,21.54
2022-08-26T18:56:30.603Z,21.31
2022-08-26T18:58:59.020Z,20.82
2022-08-26T19:01:27.887Z,21.28
2022-08-26T19:04:00.034Z,21.68
2022-08-26T19:06:28.903Z,21.80
2022-08-26T19:08:55.830Z,20.69
2022-08-26T19:11:31.538Z,24.20
2022-08-26T19:13:58.865Z,21.97
2022-08-26T19:16:27.758Z,21.45
2022-08-26T19:18:55.839Z,22.30
2022-08-26T19:21:23.507Z,23.20
2022-08-26T19:23:50.859Z,21.32
2022-08-26T19:26:18.541Z,21.39
2022-08-26T19:28:46.018Z,21.74
2022-08-26T19:31:13.065Z,22.17
2022-08-26T19:33:43.121Z,23.71
2022-08-26T19:36:16.267Z,21.89
2022-08-26T19:38:45.241Z,23.34
2022-08-26T19:41:15.200Z,23.43
2022-08-26T19:43:42.943Z,25.06
2022-08-26T19:46:13.409Z,26.12
2022-08-26T19:48:44.391Z,24.43
2022-08-26T19:51:20.902Z,25.47
2022-08-26T19:53:49.331Z,24.74
2022-08-26T19:56:16.846Z,25.18
2022-08-26T19:58:44.613Z,25.06
2022-08-26T20:01:12.496Z,26.29
2022-08-26T20:03:41.321Z,22.91
2022-08-26T20:06:10.911Z,23.77
2022-08-26T20:08:39.835Z,24.85
2022-08-26T20:11:11.167Z,24.16
2022-08-26T20:13:40.191Z,22.76
2022-08-26T20:16:08.236Z,30.70
2022-08-26T20:18:54.012Z,30.75
2022-08-26T20:21:27.154Z,26.80
2022-08-26T20:23:59.095Z,28.41
2022-08-26T20:26:28.301Z,29.78
2022-08-26T20:28:55.896Z,27.39
2022-08-26T20:31:24.274Z,27.04
2022-08-26T20:33:51.911Z,28.89
2022-08-26T20:36:21.201Z,25.44
2022-08-26T20:38:49.723Z,27.53
2022-08-26T20:41:18.667Z,28.25
2022-08-26T20:43:47.130Z,26.67
2022-08-26T20:46:18.035Z,28.11
2022-08-26T20:48:49.979Z,29.35
2022-08-26T20:51:18.053Z,27.16
2022-08-26T20:53:45.446Z,26.93
2022-08-26T20:56:14.396Z,26.60
2022-08-26T20:58:42.029Z,26.82
2022-08-26T21:01:16.954Z,25.25
2022-08-26T21:03:43.808Z,27.09
2022-08-26T21:06:10.639Z,27.46
2022-08-26T21:08:42.519Z,27.36
2022-08-26T21:11:11.614Z,26.00
2022-08-26T21:13:48.572Z,28.18
2022-08-26T21:16:26.363Z,28.93
2022-08-26T21:18:53.184Z,27.24
2022-08-26T21:21:25.205Z,25.87
2022-08-26T21:23:52.318Z,27.73
2022-08-26T21:26:19.275Z,26.59
2022-08-26T21:28:46.429Z,26.88
2022-08-26T21:31:16.972Z,26.80
2022-08-26T21:33:44.537Z,26.55
2022-08-26T21:36:13.158Z,25.65
2022-08-26T21:38:41.124Z,25.70
2022-08-26T21:41:19.895Z,24.22
2022-08-26T21:43:48.601Z,25.85
2022-08-26T21:46:18.920Z,25.43
2022-08-26T21:49:07.945Z,24.95
2022-08-26T21:51:41.838Z,25.17
2022-08-26T21:54:11.385Z,24.81
2022-08-26T21:56:44.149Z,24.93
2022-08-26T21:59:11.254Z,24.90
2022-08-26T22:01:38.271Z,27.16
2022-08-26T22:04:07.157Z,24.35
2022-08-26T22:06:39.223Z,24.92
2022-08-26T22:09:06.085Z,24.87
2022-08-26T22:11:32.882Z,25.83
2022-08-26T22:13:59.672Z,26.24
2022-08-26T22:16:28.768Z,25.16
2022-08-26T22:18:55.742Z,25.44
2022-08-26T22:21:24.546Z,27.65
2022-08-26T22:23:51.923Z,28.91
2022-08-26T22:26:27.298Z,28.14
2022-08-26T22:28:55.619Z,26.07
2022-08-26T22:31:29.063Z,25.48
2022-08-26T22:34:11.791Z,25.21
2022-08-26T22:36:43.648Z,24.60
2022-08-26T22:39:13.829Z,24.71
2022-08-26T22:41:42.099Z,24.61
2022-08-26T22:44:10.667Z,24.53
2022-08-26T22:46:38.650Z,24.00
2022-08-26T22:49:07.567Z,25.37
2022-08-26T22:51:34.636Z,25.93
2022-08-26T22:54:01.630Z,25.81
2022-08-26T22:56:28.426Z,26.90
2022-08-26T22:58:55.174Z,25.76
2022-08-26T23:01:22.229Z,25.72
2022-08-26T23:03:49.157Z,24.02
2022-08-26T23:06:15.986Z,23.75
2022-08-26T23:08:45.283Z,24.93
2022-08-26T23:11:13.654Z,25.36
2022-08-26T23:13:41.085Z,24.25
2022-08-26T23:16:11.113Z,24.11
2022-08-26T23:18:40.037Z,24.19
2022-08-26T23:21:07.322Z,24.23
2022-08-26T23:23:35.377Z,24.68
2022-08-26T23:26:05.951Z,24.64
2022-08-26T23:28:34.101Z,24.61
2022-08-26T23:31:00.883Z,24.78
2022-08-26T23:33:47.631Z,23.67
2022-08-26T23:36:17.988Z,25.00
2022-08-26T23:38:52.354Z,25.96
2022-08-26T23:41:22.450Z,29.58
2022-08-26T23:43:50.020Z,27.69
2022-08-26T23:46:17.765Z,26.47
2022-08-26T23:48:45.023Z,28.46
2022-08-26T23:51:30.646Z,26.44
2022-08-26T23:53:57.992Z,26.37
2022-08-26T23:56:25.570Z,26.33
2022-08-26T23:58:54.017Z,25.49
